Time;durP1;ratioP1;P1;durP2;ratioP2;P2;SDS_P1;SDS_P2;PMS_P1;PMS_P2;Temp;Humidity;BMP_temperature;BMP_pressure;BME280_temperature;BME280_humidity;BME280_pressure;Samples;Min_cycle;Max_cycle;Signal;HPM_P1;HPM_P2
2023/01/06 00:02:19;;;;;;;3.10;1.70;;;14.80;66.70;;;;;;5068684;28;20443;-88
2023/01/06 00:04:46;;;;;;;3.47;1.60;;;14.70;67.00;;;;;;5051901;28;20455;-88
2023/01/06 00:07:13;;;;;;;2.20;1.83;;;14.70;67.00;;;;;;5049085;27;20439;-88
2023/01/06 00:09:40;;;;;;;3.73;1.73;;;14.80;66.80;;;;;;5060852;28;20450;-88
2023/01/06 00:12:08;;;;;;;2.37;2.17;;;14.80;67.00;;;;;;5067607;28;20458;-88
2023/01/06 00:14:36;;;;;;;3.17;1.87;;;14.60;67.80;;;;;;5084023;28;20443;-88
2023/01/06 00:17:03;;;;;;;3.60;2.03;;;14.70;67.50;;;;;;5066091;27;20477;-87
2023/01/06 00:19:30;;;;;;;2.03;1.87;;;14.60;67.50;;;;;;5058599;28;20443;-87
2023/01/06 00:21:57;;;;;;;4.40;2.40;;;14.50;68.60;;;;;;5045236;27;20450;-88
2023/01/06 00:24:24;;;;;;;4.20;2.70;;;14.40;68.90;;;;;;5049412;28;20679;-87
2023/01/06 00:26:51;;;;;;;2.77;2.50;;;14.20;69.40;;;;;;5067749;28;20470;-87
2023/01/06 00:29:18;;;;;;;4.47;3.20;;;14.40;69.10;;;;;;5100443;27;20682;-87
2023/01/06 00:31:46;;;;;;;3.10;2.70;;;14.30;69.60;;;;;;5065041;28;20935;-88
2023/01/06 00:34:13;;;;;;;3.17;2.77;;;14.40;69.30;;;;;;5062375;27;20458;-87
2023/01/06 00:36:41;;;;;;;3.93;3.53;;;14.70;68.70;;;;;;5062313;28;20463;-88
2023/01/06 00:39:12;;;;;;;4.13;3.63;;;14.70;68.10;;;;;;5067610;27;20549;-88
2023/01/06 00:44:25;;;;;;;7.23;3.83;;;14.70;68.40;;;;;;5050623;28;20431;-88
2023/01/06 00:46:53;;;;;;;5.67;4.20;;;14.70;68.90;;;;;;5076379;28;20450;-88
2023/01/06 00:49:21;;;;;;;5.17;3.80;;;14.80;68.50;;;;;;5096408;27;20483;-89
2023/01/06 00:51:48;;;;;;;7.17;4.53;;;14.60;69.10;;;;;;5084174;28;20466;-88
2023/01/06 00:54:16;;;;;;;8.77;4.70;;;14.50;69.70;;;;;;5081014;28;20443;-87
2023/01/06 00:56:45;;;;;;;7.43;4.10;;;14.40;70.20;;;;;;5099905;28;20461;-88
2023/01/06 00:59:13;;;;;;;7.20;4.20;;;14.30;70.80;;;;;;5080716;28;20467;-88
2023/01/06 01:01:41;;;;;;;6.73;4.83;;;14.50;70.40;;;;;;5050417;27;20453;-87
2023/01/06 01:04:10;;;;;;;5.13;4.63;;;14.30;70.70;;;;;;5082764;27;20498;-88
2023/01/06 01:06:37;;;;;;;5.60;4.27;;;14.20;71.40;;;;;;5050484;28;20438;-88
2023/01/06 01:09:06;;;;;;;7.10;4.53;;;14.50;70.60;;;;;;5082619;27;20977;-88
2023/01/06 01:14:20;;;;;;;6.20;4.40;;;14.90;68.80;;;;;;5059823;28;20437;-88
2023/01/06 01:16:47;;;;;;;7.83;5.13;;;15.00;68.20;;;;;;5062764;28;20471;-88
2023/01/06 01:19:16;;;;;;;7.70;5.90;;;15.10;68.30;;;;;;5078583;28;20496;-87
2023/01/06 01:21:43;;;;;;;7.50;4.90;;;15.20;67.70;;;;;;5044210;28;20482;-88
2023/01/06 01:24:10;;;;;;;6.90;4.40;;;15.20;67.40;;;;;;5068368;27;20470;-88
2023/01/06 01:26:37;;;;;;;5.10;4.37;;;15.20;67.30;;;;;;5064229;28;20439;-88
2023/01/06 01:29:05;;;;;;;5.47;3.87;;;15.40;67.20;;;;;;5057811;28;20508;-88
2023/01/06 01:31:32;;;;;;;8.37;5.40;;;15.40;66.60;;;;;;5043131;28;20442;-88
2023/01/06 01:34:00;;;;;;;8.00;5.17;;;15.30;66.90;;;;;;5041577;28;20457;-88
2023/01/06 01:36:29;;;;;;;6.20;5.00;;;15.30;66.90;;;;;;5063212;28;20458;-88
2023/01/06 01:38:56;;;;;;;8.70;5.43;;;15.10;67.50;;;;;;5057558;28;20807;-87
2023/01/06 01:41:24;;;;;;;9.07;6.00;;;15.20;67.50;;;;;;5066313;28;20453;-88
2023/01/06 01:43:53;;;;;;;8.30;5.53;;;15.20;67.40;;;;;;5050098;28;20450;-88
2023/01/06 01:46:25;;;;;;;6.67;5.50;;;15.00;68.10;;;;;;5048231;28;20526;-88
2023/01/06 01:48:54;;;;;;;8.20;5.43;;;15.10;67.80;;;;;;5084536;28;20463;-88
2023/01/06 01:51:26;;;;;;;9.60;6.17;;;15.20;67.20;;;;;;5065101;28;20455;-88
2023/01/06 01:53:59;;;;;;;11.43;6.07;;;15.00;67.90;;;;;;5067360;28;20658;-88
2023/01/06 01:56:31;;;;;;;7.47;5.13;;;14.90;68.10;;;;;;5075067;28;20463;-88
2023/01/06 01:59:00;;;;;;;6.50;5.23;;;14.90;68.00;;;;;;5083516;28;20469;-87
2023/01/06 02:01:28;;;;;;;8.77;5.33;;;14.90;68.30;;;;;;5081827;28;20500;-88
2023/01/06 02:03:55;;;;;;;7.63;5.43;;;15.00;67.80;;;;;;5082379;28;20868;-87
2023/01/06 02:06:25;;;;;;;12.90;5.20;;;15.10;67.60;;;;;;5067191;28;20431;-88
2023/01/06 02:09:00;;;;;;;10.90;5.83;;;15.10;67.30;;;;;;5065909;28;20474;-88
2023/01/06 02:11:30;;;;;;;8.43;5.10;;;15.00;67.60;;;;;;5049145;28;20955;-88
2023/01/06 02:14:06;;;;;;;6.90;4.90;;;15.00;67.50;;;;;;5065341;28;20451;-85
2023/01/06 02:16:45;;;;;;;6.97;4.60;;;15.10;67.30;;;;;;5065381;28;20999;-88
2023/01/06 02:19:35;;;;;;;4.33;3.93;;;15.10;66.90;;;;;;5083550;28;20467;-88
2023/01/06 02:22:18;;;;;;;6.03;4.50;;;15.10;67.60;;;;;;5039824;28;20451;-88
2023/01/06 02:25:16;;;;;;;7.77;4.40;;;15.20;67.50;;;;;;5051008;28;20463;-88
2023/01/06 02:28:18;;;;;;;7.80;4.63;;;15.30;67.20;;;;;;5061053;28;20467;-88
2023/01/06 02:31:16;;;;;;;6.57;5.47;;;15.20;67.00;;;;;;5062545;28;20446;-88
2023/01/06 02:33:50;;;;;;;7.30;5.37;;;15.20;67.10;;;;;;5037526;28;20451;-88
2023/01/06 02:36:29;;;;;;;6.80;5.50;;;14.90;68.20;;;;;;5080335;28;20961;-88
2023/01/06 02:39:08;;;;;;;7.30;5.30;;;15.00;67.80;;;;;;5066909;28;21165;-88
2023/01/06 02:41:42;;;;;;;7.90;6.30;;;14.90;68.20;;;;;;5066111;28;20525;-88
2023/01/06 02:44:19;;;;;;;7.93;5.80;;;14.90;68.50;;;;;;5049475;28;20992;-88
2023/01/06 02:47:05;;;;;;;7.60;5.10;;;14.90;68.60;;;;;;5050108;28;20446;-89
2023/01/06 02:49:42;;;;;;;8.07;5.57;;;14.90;68.80;;;;;;5065795;28;20486;-87
2023/01/06 02:52:18;;;;;;;8.57;6.23;;;14.90;68.20;;;;;;5056383;28;20511;-88
2023/01/06 02:54:52;;;;;;;6.33;5.30;;;14.70;69.20;;;;;;5050634;28;20448;-88
2023/01/06 02:57:26;;;;;;;8.23;5.10;;;14.70;69.40;;;;;;5064634;28;20505;-88
2023/01/06 02:59:59;;;;;;;6.67;5.57;;;14.60;69.60;;;;;;5067632;28;20787;-88
2023/01/06 03:02:29;;;;;;;8.13;6.07;;;14.70;69.20;;;;;;5065890;28;20505;-89
2023/01/06 03:05:01;;;;;;;8.60;5.90;;;14.70;69.00;;;;;;5066667;28;20450;-89
2023/01/06 03:07:32;;;;;;;6.10;5.07;;;15.00;68.40;;;;;;5080035;28;20471;-88
2023/01/06 03:10:03;;;;;;;6.47;4.80;;;15.10;67.80;;;;;;5040051;28;20439;-87
2023/01/06 03:12:36;;;;;;;6.13;5.53;;;15.10;67.60;;;;;;5049897;28;20805;-88
2023/01/06 03:15:04;;;;;;;5.77;4.70;;;15.10;67.60;;;;;;5058330;28;20451;-88
2023/01/06 03:17:31;;;;;;;5.30;4.23;;;15.00;68.30;;;;;;5057524;28;20475;-88
2023/01/06 03:20:00;;;;;;;5.70;4.33;;;14.90;68.20;;;;;;5060355;28;21076;-87
2023/01/06 03:22:28;;;;;;;6.27;4.50;;;14.50;70.00;;;;;;5082289;28;20956;-88
2023/01/06 03:24:56;;;;;;;4.83;4.33;;;14.40;70.80;;;;;;5043760;28;20537;-88
2023/01/06 03:27:26;;;;;;;5.40;4.37;;;14.50;70.70;;;;;;5083399;28;20461;-88
2023/01/06 03:29:54;;;;;;;4.73;4.20;;;14.30;71.90;;;;;;5044083;28;20440;-86
2023/01/06 03:32:27;;;;;;;6.93;4.50;;;14.20;72.40;;;;;;5067519;28;20693;-87
2023/01/06 03:35:10;;;;;;;5.87;5.27;;;14.20;73.20;;;;;;5067192;28;20450;-87
2023/01/06 03:37:50;;;;;;;5.53;4.50;;;14.50;72.00;;;;;;5084624;28;20937;-88
2023/01/06 03:40:31;;;;;;;6.13;5.53;;;14.70;71.10;;;;;;5100240;27;20467;-88
2023/01/06 03:43:14;;;;;;;6.60;5.40;;;14.70;70.40;;;;;;5070650;28;21037;-88
2023/01/06 03:46:01;;;;;;;7.37;5.77;;;14.60;70.80;;;;;;5071031;28;20446;-88
2023/01/06 03:48:45;;;;;;;7.03;6.30;;;14.50;71.10;;;;;;5085550;28;20474;-88
2023/01/06 03:51:29;;;;;;;5.40;4.60;;;14.60;71.30;;;;;;5063744;27;20438;-88
2023/01/06 03:54:01;;;;;;;8.17;5.60;;;14.70;71.10;;;;;;5062252;28;20439;-88
2023/01/06 03:56:31;;;;;;;9.70;5.03;;;14.60;71.10;;;;;;5070081;28;20454;-88
2023/01/06 03:59:04;;;;;;;6.33;5.27;;;14.70;71.00;;;;;;5069840;28;20467;-88
2023/01/06 04:01:32;;;;;;;5.03;4.53;;;14.90;70.40;;;;;;5052137;28;20451;-88
2023/01/06 04:04:01;;;;;;;8.20;5.07;;;14.90;70.20;;;;;;5068386;28;20451;-87
2023/01/06 04:06:30;;;;;;;5.57;5.07;;;14.90;69.90;;;;;;5060045;28;20995;-88
2023/01/06 04:08:59;;;;;;;6.67;5.17;;;14.90;70.10;;;;;;5050627;28;20455;-88
2023/01/06 04:14:11;;;;;;;8.03;4.40;;;15.00;69.60;;;;;;5069036;28;20443;-88
2023/01/06 04:16:38;;;;;;;6.40;4.47;;;15.10;69.50;;;;;;5061954;28;20523;-88
2023/01/06 04:19:05;;;;;;;5.70;4.40;;;15.00;69.50;;;;;;5068027;27;20502;-87
2023/01/06 04:21:34;;;;;;;6.30;4.70;;;15.20;69.20;;;;;;5085879;28;20461;-88
2023/01/06 04:24:01;;;;;;;6.13;4.53;;;15.30;68.40;;;;;;5081732;28;20465;-88
2023/01/06 04:26:28;;;;;;;8.20;4.37;;;15.20;68.90;;;;;;5081305;28;20450;-88
2023/01/06 04:28:55;;;;;;;5.97;3.83;;;15.30;68.70;;;;;;5071201;28;20466;-87
2023/01/06 04:31:22;;;;;;;5.07;3.60;;;15.20;68.50;;;;;;5067808;27;20455;-87
2023/01/06 04:33:51;;;;;;;4.20;3.40;;;15.20;69.10;;;;;;5069060;28;20451;-88
2023/01/06 04:36:20;;;;;;;4.33;3.67;;;15.10;68.80;;;;;;5083562;28;20492;-88
2023/01/06 04:38:51;;;;;;;5.70;3.33;;;15.10;69.40;;;;;;5050983;28;20461;-88
2023/01/06 04:41:18;;;;;;;3.20;2.70;;;15.00;69.70;;;;;;5085777;28;20963;-88
2023/01/06 04:43:45;;;;;;;3.03;2.73;;;14.80;71.20;;;;;;5073539;28;20466;-88
2023/01/06 04:46:12;;;;;;;3.67;3.30;;;14.60;71.10;;;;;;5087808;28;20455;-88
2023/01/06 04:48:38;;;;;;;3.23;2.77;;;14.70;71.10;;;;;;5046304;28;20460;-88
2023/01/06 04:51:08;;;;;;;3.10;2.80;;;14.70;71.30;;;;;;5064020;28;20469;-88
2023/01/06 04:53:35;;;;;;;2.87;2.57;;;14.50;72.00;;;;;;5044425;28;20460;-88
2023/01/06 04:56:05;;;;;;;4.37;2.50;;;14.70;71.70;;;;;;5068079;28;20527;-87
2023/01/06 04:58:32;;;;;;;4.27;3.27;;;14.80;71.10;;;;;;5084581;28;20459;-88
2023/01/06 05:01:00;;;;;;;2.40;2.20;;;15.00;70.50;;;;;;5053140;28;20450;-87
2023/01/06 05:03:27;;;;;;;7.30;2.90;;;15.10;69.60;;;;;;5062539;27;20462;-88
2023/01/06 05:05:54;;;;;;;4.20;2.80;;;15.10;69.80;;;;;;5084543;28;20451;-87
2023/01/06 05:08:21;;;;;;;3.80;2.70;;;14.80;70.50;;;;;;5066271;28;20851;-85
2023/01/06 05:10:48;;;;;;;6.17;3.70;;;14.80;70.70;;;;;;5068883;28;20849;-88
2023/01/06 05:13:16;;;;;;;2.83;2.30;;;14.90;70.70;;;;;;5078894;28;20448;-88
2023/01/06 05:15:43;;;;;;;3.10;2.43;;;14.80;70.20;;;;;;5064530;28;20443;-88
2023/01/06 05:18:12;;;;;;;3.40;2.70;;;14.70;70.20;;;;;;5068670;28;20535;-87
2023/01/06 05:20:39;;;;;;;2.87;2.50;;;14.90;70.20;;;;;;5083371;28;20912;-88
2023/01/06 05:23:06;;;;;;;3.37;2.70;;;14.90;70.00;;;;;;5082553;28;20540;-86
2023/01/06 05:25:33;;;;;;;2.40;2.20;;;14.90;69.70;;;;;;5053298;28;20496;-88
2023/01/06 05:28:00;;;;;;;2.50;2.30;;;14.90;69.50;;;;;;5084479;28;20478;-88
2023/01/06 05:30:28;;;;;;;2.50;2.30;;;15.10;69.00;;;;;;5081045;27;21085;-87
2023/01/06 05:32:55;;;;;;;2.70;2.50;;;15.10;68.70;;;;;;5084466;28;20506;-88
2023/01/06 05:35:22;;;;;;;3.30;2.97;;;15.00;68.90;;;;;;5066163;28;20447;-85
2023/01/06 05:37:49;;;;;;;3.30;2.47;;;15.00;69.00;;;;;;5054975;28;20938;-88
2023/01/06 05:40:16;;;;;;;29.97;13.67;;;15.10;68.90;;;;;;5066336;28;20466;-88
2023/01/06 05:42:43;;;;;;;17.57;9.07;;;15.00;68.60;;;;;;5050759;28;20447;-88
2023/01/06 05:45:11;;;;;;;8.37;5.93;;;15.10;68.40;;;;;;5067486;28;21066;-88
2023/01/06 05:47:39;;;;;;;46.30;20.23;;;15.30;67.90;;;;;;5049618;28;20467;-88
2023/01/06 05:50:07;;;;;;;40.03;18.37;;;15.30;67.20;;;;;;5045707;28;20458;-88
2023/01/06 05:52:34;;;;;;;3.53;2.70;;;15.50;67.20;;;;;;5073960;28;20550;-87
2023/01/06 05:55:01;;;;;;;15.37;6.27;;;15.50;66.80;;;;;;5067641;28;20439;-89
2023/01/06 05:57:28;;;;;;;35.97;15.00;;;15.50;66.70;;;;;;5077181;28;20634;-88
2023/01/06 05:59:55;;;;;;;21.00;10.43;;;15.60;66.60;;;;;;5051315;28;20900;-88
2023/01/06 06:02:22;;;;;;;18.77;9.87;;;15.70;66.30;;;;;;5051290;28;20442;-88
2023/01/06 06:04:50;;;;;;;8.60;4.90;;;15.80;66.10;;;;;;5061338;28;20478;-88
2023/01/06 06:07:17;;;;;;;8.30;4.40;;;15.80;65.70;;;;;;5050392;28;20486;-88
2023/01/06 06:09:44;;;;;;;8.27;4.63;;;15.80;65.60;;;;;;5078098;28;20664;-88
2023/01/06 06:12:12;;;;;;;17.93;10.70;;;15.80;65.40;;;;;;5084259;28;20869;-88
2023/01/06 06:14:39;;;;;;;14.27;8.10;;;15.80;65.20;;;;;;5099042;28;20455;-88
2023/01/06 06:17:06;;;;;;;27.27;14.03;;;15.70;65.30;;;;;;5072371;28;20440;-88
2023/01/06 06:19:33;;;;;;;6.60;4.30;;;15.60;65.60;;;;;;5065683;28;20468;-88
2023/01/06 06:22:01;;;;;;;18.57;10.43;;;15.50;66.60;;;;;;5051545;28;20439;-88
2023/01/06 06:24:28;;;;;;;28.90;15.47;;;15.60;66.50;;;;;;5083402;27;20438;-88
2023/01/06 06:26:55;;;;;;;54.50;26.63;;;15.70;66.00;;;;;;5084308;28;20970;-88
2023/01/06 06:29:22;;;;;;;58.20;28.40;;;15.80;65.60;;;;;;5068899;28;20806;-88
2023/01/06 06:31:49;;;;;;;41.77;21.43;;;15.80;65.20;;;;;;5053210;28;20439;-85
2023/01/06 06:34:16;;;;;;;25.03;13.17;;;15.80;66.30;;;;;;5055704;28;20448;-85
2023/01/06 06:36:43;;;;;;;10.80;6.10;;;15.70;65.80;;;;;;5049581;28;20452;-85
2023/01/06 06:39:11;;;;;;;15.87;8.93;;;15.60;66.50;;;;;;5048051;28;20471;-85
2023/01/06 06:41:38;;;;;;;11.00;7.27;;;15.70;65.70;;;;;;5068111;28;20943;-85
2023/01/06 06:44:05;;;;;;;7.80;6.40;;;15.80;65.60;;;;;;5068664;28;20458;-86
2023/01/06 06:46:32;;;;;;;7.67;6.87;;;15.90;65.30;;;;;;5100546;28;20514;-85
2023/01/06 06:48:59;;;;;;;6.63;4.37;;;15.80;65.30;;;;;;5068374;28;20467;-85
2023/01/06 06:51:26;;;;;;;4.20;3.67;;;15.70;65.70;;;;;;5043015;28;20447;-85
2023/01/06 06:53:53;;;;;;;3.60;3.10;;;15.60;65.70;;;;;;5084206;28;20442;-86
2023/01/06 06:56:22;;;;;;;2.80;2.50;;;15.50;66.20;;;;;;5066552;28;20518;-85
2023/01/06 06:58:49;;;;;;;4.40;3.40;;;15.30;66.60;;;;;;5082090;28;20485;-85
2023/01/06 07:01:17;;;;;;;4.87;4.00;;;15.20;67.10;;;;;;5100541;28;20454;-85
2023/01/06 07:03:45;;;;;;;2.80;2.60;;;15.30;67.30;;;;;;5063665;28;21238;-86
2023/01/06 07:06:15;;;;;;;2.77;2.57;;;15.20;67.50;;;;;;5050760;28;20986;-85
2023/01/06 07:08:43;;;;;;;5.37;4.90;;;15.30;67.30;;;;;;5082135;28;20489;-86
2023/01/06 07:11:10;;;;;;;2.97;2.73;;;15.30;67.00;;;;;;5048565;28;20949;-82
2023/01/06 07:13:39;;;;;;;3.30;3.00;;;15.30;66.80;;;;;;5048146;28;21030;-85
2023/01/06 07:16:07;;;;;;;6.60;3.57;;;15.20;66.90;;;;;;5082915;28;20817;-86
2023/01/06 07:18:34;;;;;;;2.30;2.03;;;15.10;67.10;;;;;;5103332;27;20816;-85
2023/01/06 07:21:01;;;;;;;1.80;1.40;;;15.10;67.30;;;;;;5058824;28;20435;-85
2023/01/06 07:23:29;;;;;;;2.07;1.77;;;15.00;67.80;;;;;;5087627;28;20656;-85
2023/01/06 07:25:57;;;;;;;5.00;4.30;;;14.70;68.10;;;;;;5081616;28;20843;-86
2023/01/06 07:28:25;;;;;;;5.17;4.30;;;14.80;68.80;;;;;;5063555;28;20446;-83
2023/01/06 07:30:54;;;;;;;1.90;1.80;;;14.80;68.60;;;;;;5088031;28;20455;-86
2023/01/06 07:33:21;;;;;;;1.30;1.20;;;14.80;69.10;;;;;;5066830;28;20448;-85
2023/01/06 07:35:52;;;;;;;1.10;1.00;;;14.80;68.90;;;;;;5071020;28;20451;-86
2023/01/06 07:38:19;;;;;;;1.80;1.60;;;14.60;70.20;;;;;;5067872;28;21007;-86
2023/01/06 07:40:46;;;;;;;6.50;3.60;;;14.50;70.50;;;;;;5069442;28;20435;-86
2023/01/06 07:43:13;;;;;;;3.10;2.67;;;14.60;70.50;;;;;;5086024;28;20967;-86
2023/01/06 07:45:40;;;;;;;2.97;1.77;;;14.60;70.50;;;;;;5067955;28;20439;-86
2023/01/06 07:48:09;;;;;;;1.57;1.47;;;14.70;70.30;;;;;;5061533;28;20493;-86
2023/01/06 07:50:36;;;;;;;1.30;1.20;;;14.70;69.90;;;;;;5059128;27;21106;-86
2023/01/06 07:53:03;;;;;;;1.60;1.50;;;14.90;69.50;;;;;;5069863;28;20529;-86
2023/01/06 07:55:30;;;;;;;1.60;1.47;;;15.10;69.20;;;;;;5085953;28;20451;-87
2023/01/06 07:57:58;;;;;;;1.27;1.03;;;15.10;68.70;;;;;;5086931;28;20447;-86
2023/01/06 08:00:25;;;;;;;1.40;1.30;;;15.20;68.20;;;;;;5067084;28;20438;-85
2023/01/06 08:02:53;;;;;;;2.17;1.87;;;15.30;68.30;;;;;;5104416;28;20453;-86
2023/01/06 08:05:21;;;;;;;3.00;2.70;;;15.40;67.80;;;;;;5056619;28;20531;-86
2023/01/06 08:07:48;;;;;;;1.67;1.50;;;15.60;67.50;;;;;;5052457;28;20550;-86
2023/01/06 08:10:15;;;;;;;1.87;1.60;;;15.70;67.20;;;;;;5046982;28;20438;-86
2023/01/06 08:12:42;;;;;;;2.33;2.13;;;15.80;66.90;;;;;;5059716;28;20536;-86
2023/01/06 08:15:10;;;;;;;1.87;1.77;;;15.80;66.80;;;;;;5084040;28;20959;-86
2023/01/06 08:17:36;;;;;;;1.83;1.73;;;15.80;67.00;;;;;;5051187;27;20975;-85
2023/01/06 08:20:04;;;;;;;1.60;1.50;;;15.90;67.50;;;;;;5069532;28;20480;-86
2023/01/06 08:22:32;;;;;;;2.23;1.70;;;15.90;66.40;;;;;;5067239;27;20546;-86
2023/01/06 08:24:59;;;;;;;3.57;3.27;;;15.80;66.70;;;;;;5061181;28;20987;-86
2023/01/06 08:27:27;;;;;;;2.90;2.67;;;15.80;66.50;;;;;;5084788;28;20497;-86
2023/01/06 08:29:54;;;;;;;2.63;2.30;;;15.90;66.50;;;;;;5069122;28;20841;-86
2023/01/06 08:32:21;;;;;;;2.70;1.90;;;15.90;66.20;;;;;;5088354;27;20528;-86
2023/01/06 08:34:48;;;;;;;2.93;2.73;;;15.90;66.30;;;;;;5084728;28;20447;-86
2023/01/06 08:37:15;;;;;;;2.97;2.63;;;15.70;66.90;;;;;;5074030;28;20534;-86
2023/01/06 08:39:44;;;;;;;2.70;2.50;;;15.60;66.90;;;;;;5051390;28;20459;-86
2023/01/06 08:42:11;;;;;;;2.17;1.97;;;15.30;68.20;;;;;;5078710;28;20473;-85
2023/01/06 08:44:38;;;;;;;31.30;21.83;;;15.40;67.90;;;;;;5097429;27;20443;-85
2023/01/06 08:47:05;;;;;;;20.47;12.80;;;15.50;67.60;;;;;;5049856;28;20436;-85
2023/01/06 08:49:32;;;;;;;38.40;23.20;;;15.30;68.10;;;;;;5063807;28;20446;-85
2023/01/06 08:51:59;;;;;;;6.00;5.40;;;15.00;69.10;;;;;;5051910;28;20542;-86
2023/01/06 08:54:27;;;;;;;7.77;6.70;;;14.80;68.60;;;;;;5058481;28;20454;-85
2023/01/06 08:56:55;;;;;;;1.60;1.50;;;14.50;68.00;;;;;;5049860;28;20443;-86
2023/01/06 08:59:22;;;;;;;5.53;2.60;;;13.90;67.90;;;;;;5063930;28;20462;-85
2023/01/06 09:01:50;;;;;;;4.63;4.23;;;13.60;69.30;;;;;;5081521;28;20455;-84
2023/01/06 09:04:17;;;;;;;2.93;2.67;;;13.50;69.80;;;;;;5080491;28;20459;-84
2023/01/06 09:06:46;;;;;;;4.63;3.17;;;13.50;70.00;;;;;;5046636;28;20454;-83
2023/01/06 09:09:13;;;;;;;2.50;2.30;;;13.50;70.60;;;;;;5048299;28;20994;-86
2023/01/06 09:11:41;;;;;;;1.97;1.70;;;13.40;70.30;;;;;;5054691;28;20817;-85
2023/01/06 09:14:10;;;;;;;3.77;3.50;;;13.20;69.10;;;;;;5057141;28;20454;-85
2023/01/06 09:16:37;;;;;;;2.20;2.00;;;13.10;69.80;;;;;;5062617;28;20443;-85
2023/01/06 09:19:04;;;;;;;2.40;1.77;;;13.20;69.70;;;;;;5064199;28;20811;-85
2023/01/06 09:21:31;;;;;;;1.83;1.63;;;13.30;69.60;;;;;;5079767;27;20490;-85
2023/01/06 09:23:58;;;;;;;1.90;1.60;;;13.30;69.20;;;;;;5066833;28;20522;-86
2023/01/06 09:26:25;;;;;;;3.10;2.80;;;13.30;69.40;;;;;;5077272;27;20447;-82
2023/01/06 09:28:52;;;;;;;4.73;3.07;;;13.30;69.40;;;;;;5046859;28;20474;-87
2023/01/06 09:31:20;;;;;;;4.10;3.13;;;13.50;68.80;;;;;;5064258;28;20443;-88
2023/01/06 09:33:47;;;;;;;3.60;2.43;;;13.70;68.60;;;;;;5063485;28;20453;-88
2023/01/06 09:36:14;;;;;;;2.60;2.40;;;14.00;67.60;;;;;;5043175;28;20541;-87
2023/01/06 09:38:41;;;;;;;16.57;9.23;;;14.20;67.80;;;;;;5079247;28;20474;-88
2023/01/06 09:41:36;;;;;;;4.40;4.00;;;14.40;67.30;;;;;;5064808;28;20530;-87
2023/01/06 09:44:10;;;;;;;4.20;2.33;;;14.50;66.10;;;;;;5059226;28;20945;-88
2023/01/06 09:46:43;;;;;;;12.43;7.97;;;14.50;65.60;;;;;;5058175;27;20899;-88
2023/01/06 09:49:21;;;;;;;13.20;7.00;;;14.60;65.60;;;;;;5080266;28;20474;-88
2023/01/06 09:51:48;;;;;;;5.50;4.33;;;14.60;65.10;;;;;;5062976;28;20455;-87
2023/01/06 09:54:19;;;;;;;67.73;31.73;;;14.70;65.40;;;;;;5062235;28;20431;-88
2023/01/06 09:56:53;;;;;;;96.67;41.17;;;14.90;65.40;;;;;;5079289;28;20971;-88
2023/01/06 09:59:24;;;;;;;21.70;11.20;;;15.10;65.00;;;;;;5081007;28;21005;-87
2023/01/06 10:01:54;;;;;;;44.20;19.80;;;15.10;64.50;;;;;;5037555;28;20447;-88
2023/01/06 10:04:26;;;;;;;85.67;37.03;;;14.70;64.60;;;;;;5057652;28;20478;-87
2023/01/06 10:07:04;;;;;;;24.23;14.13;;;14.70;64.60;;;;;;5064812;28;20443;-88
2023/01/06 10:09:43;;;;;;;71.17;39.13;;;14.70;65.30;;;;;;5053957;28;20455;-88
2023/01/06 10:12:23;;;;;;;12.80;9.23;;;14.80;64.50;;;;;;5062098;28;20530;-88
2023/01/06 10:15:00;;;;;;;2.53;2.33;;;14.80;64.30;;;;;;5046031;28;20529;-87
2023/01/06 10:18:03;;;;;;;4.17;3.67;;;14.40;64.20;;;;;;5080451;27;20715;-86
2023/01/06 10:20:45;;;;;;;4.63;4.07;;;14.30;64.10;;;;;;5052863;28;20476;-87
2023/01/06 10:23:28;;;;;;;4.67;2.73;;;14.40;64.20;;;;;;5063218;28;20447;-87
2023/01/06 10:26:04;;;;;;;3.80;3.50;;;14.30;63.70;;;;;;5048252;28;20450;-85
2023/01/06 10:28:35;;;;;;;7.80;4.30;;;14.30;64.20;;;;;;5064396;28;21125;-86
2023/01/06 10:31:05;;;;;;;7.43;6.80;;;14.40;63.90;;;;;;5064827;28;20447;-88
2023/01/06 10:33:37;;;;;;;4.50;4.10;;;14.30;63.70;;;;;;5090212;28;21382;-88
2023/01/06 10:36:10;;;;;;;1.70;1.60;;;14.30;62.30;;;;;;5082128;28;20853;-87
2023/01/06 10:38:40;;;;;;;3.00;2.67;;;14.30;62.10;;;;;;5044845;28;20481;-86
2023/01/06 10:41:15;;;;;;;4.73;2.43;;;14.50;63.10;;;;;;5065479;28;20466;-87
2023/01/06 10:43:42;;;;;;;1.77;1.47;;;14.70;62.50;;;;;;5058635;28;20453;-87
2023/01/06 10:46:09;;;;;;;1.20;1.10;;;14.70;61.00;;;;;;5080275;28;20469;-85
2023/01/06 10:48:39;;;;;;;2.27;2.07;;;14.60;60.80;;;;;;5056779;28;20483;-86
2023/01/06 10:51:32;;;;;;;2.67;2.47;;;14.60;60.10;;;;;;5067265;28;20457;-87
2023/01/06 10:54:01;;;;;;;1.60;1.50;;;14.60;60.10;;;;;;5055794;28;20443;-86
2023/01/06 10:56:29;;;;;;;2.37;1.30;;;14.50;60.60;;;;;;5045756;28;20447;-84
2023/01/06 10:59:00;;;;;;;2.33;2.13;;;14.50;59.80;;;;;;5057972;28;21090;-87
2023/01/06 11:01:28;;;;;;;1.97;1.87;;;14.50;60.80;;;;;;5077480;28;20459;-87
2023/01/06 11:04:10;;;;;;;5.00;2.17;;;14.50;60.50;;;;;;5045295;28;20495;-87
2023/01/06 11:06:40;;;;;;;1.70;1.60;;;14.60;60.30;;;;;;5079291;28;20482;-87
2023/01/06 11:09:09;;;;;;;1.47;1.37;;;14.50;60.30;;;;;;5046196;28;20474;-87
2023/01/06 11:11:47;;;;;;;2.37;1.87;;;14.30;61.00;;;;;;5061526;28;20455;-87
2023/01/06 11:14:18;;;;;;;1.30;1.20;;;14.20;61.30;;;;;;5083902;28;20877;-87
2023/01/06 11:16:54;;;;;;;1.53;1.43;;;14.40;60.90;;;;;;5058391;28;20446;-87
2023/01/06 11:19:32;;;;;;;2.10;1.03;;;14.50;60.60;;;;;;5043613;28;20466;-85
2023/01/06 11:22:00;;;;;;;1.17;1.00;;;14.50;60.60;;;;;;5080204;28;20839;-88
2023/01/06 11:24:27;;;;;;;1.10;1.00;;;14.50;60.20;;;;;;5049848;28;20454;-88
2023/01/06 11:26:56;;;;;;;1.17;0.97;;;14.40;60.00;;;;;;5063676;28;20443;-88
2023/01/06 11:29:29;;;;;;;1.23;1.13;;;14.40;60.40;;;;;;5063480;28;20471;-87
2023/01/06 11:31:59;;;;;;;1.13;1.03;;;14.50;60.90;;;;;;5054277;28;20767;-87
2023/01/06 11:34:28;;;;;;;1.40;1.27;;;14.60;60.90;;;;;;5061446;28;20447;-87
2023/01/06 11:36:56;;;;;;;1.20;1.10;;;14.40;60.40;;;;;;5098749;28;21009;-87
2023/01/06 11:39:31;;;;;;;2.57;1.30;;;14.70;60.70;;;;;;5062908;28;20853;-87
2023/01/06 11:42:04;;;;;;;1.63;1.53;;;14.90;60.90;;;;;;5063949;28;20447;-88
2023/01/06 11:44:33;;;;;;;2.70;1.80;;;15.10;60.50;;;;;;5068560;28;21047;-88
2023/01/06 11:47:05;;;;;;;1.57;1.43;;;15.20;60.10;;;;;;5067159;28;20997;-87
2023/01/06 11:49:36;;;;;;;2.50;1.80;;;15.30;60.10;;;;;;5063672;28;20466;-88
2023/01/06 11:52:06;;;;;;;1.60;1.50;;;15.10;60.10;;;;;;5053523;28;20443;-88
2023/01/06 11:54:36;;;;;;;1.70;1.60;;;15.00;60.30;;;;;;5074611;28;20458;-88
2023/01/06 11:57:25;;;;;;;2.30;1.57;;;15.00;60.60;;;;;;5054559;28;20854;-88
2023/01/06 12:00:18;;;;;;;2.50;1.97;;;14.90;60.20;;;;;;5064560;28;20463;-88
2023/01/06 12:02:50;;;;;;;3.00;1.77;;;14.90;60.40;;;;;;5076706;27;20457;-87
2023/01/06 12:05:25;;;;;;;1.90;1.70;;;14.70;60.50;;;;;;5053913;28;20451;-86
2023/01/06 12:07:54;;;;;;;1.57;1.30;;;14.70;60.80;;;;;;5074739;28;20550;-88
2023/01/06 12:10:25;;;;;;;2.50;2.30;;;14.80;60.50;;;;;;5053767;28;20549;-88
2023/01/06 12:12:52;;;;;;;1.70;1.50;;;14.70;61.20;;;;;;5105102;28;20453;-87
2023/01/06 12:15:19;;;;;;;2.10;1.90;;;14.70;61.20;;;;;;5069751;28;20443;-87
2023/01/06 12:17:51;;;;;;;2.40;2.20;;;14.70;61.00;;;;;;5069366;28;20462;-87
2023/01/06 12:20:23;;;;;;;5.23;3.60;;;14.80;60.80;;;;;;5073258;28;20474;-87
2023/01/06 12:22:53;;;;;;;1.60;1.50;;;15.00;61.00;;;;;;5068791;28;20471;-85
2023/01/06 12:25:23;;;;;;;1.90;1.80;;;14.90;60.10;;;;;;5070384;28;21219;-87
2023/01/06 12:27:54;;;;;;;2.07;1.87;;;14.80;60.10;;;;;;5068444;28;20473;-88
2023/01/06 12:30:28;;;;;;;3.10;1.63;;;14.70;60.10;;;;;;5070554;28;20454;-89
2023/01/06 12:32:59;;;;;;;3.67;3.37;;;14.70;60.80;;;;;;5105613;27;20473;-87
2023/01/06 12:35:32;;;;;;;1.40;1.30;;;14.70;61.00;;;;;;5086863;28;20447;-87
2023/01/06 12:38:03;;;;;;;4.33;1.33;;;14.70;60.70;;;;;;5071595;28;20569;-88
2023/01/06 12:40:36;;;;;;;5.53;3.13;;;14.70;61.00;;;;;;5102555;27;20474;-86
2023/01/06 12:43:14;;;;;;;4.97;1.70;;;14.90;60.60;;;;;;5051338;28;20439;-87
2023/01/06 12:45:48;;;;;;;1.60;1.50;;;15.00;60.40;;;;;;5060368;28;20467;-88
2023/01/06 12:48:23;;;;;;;4.63;1.50;;;15.20;60.80;;;;;;5052074;28;20466;-88
2023/01/06 12:50:56;;;;;;;1.40;1.30;;;15.30;60.30;;;;;;5068501;28;20446;-87
2023/01/06 12:53:26;;;;;;;2.97;1.80;;;15.40;60.40;;;;;;5069728;28;21195;-88
2023/01/06 12:56:03;;;;;;;2.80;2.17;;;15.50;60.50;;;;;;5060294;28;20451;-88
2023/01/06 12:58:40;;;;;;;1.80;1.70;;;15.60;60.20;;;;;;5068812;28;20896;-88
2023/01/06 13:01:14;;;;;;;2.17;1.83;;;15.60;60.10;;;;;;5069705;28;20593;-89
2023/01/06 13:04:24;;;;;;;6.70;5.97;;;15.70;60.10;;;;;;5048943;28;20457;-88
2023/01/06 13:07:05;;;;;;;4.50;3.63;;;15.70;59.80;;;;;;5068926;28;20466;-86
2023/01/06 13:09:45;;;;;;;3.47;3.17;;;15.60;59.40;;;;;;5070251;27;20967;-87
2023/01/06 13:12:36;;;;;;;4.80;2.70;;;15.60;59.30;;;;;;5070456;28;20956;-88